Time;durP1;ratioP1;P1;durP2;ratioP2;P2;SDS_P1;SDS_P2;PMS_P1;PMS_P2;Temp;Humidity;BMP_temperature;BMP_pressure;BME280_temperature;BME280_humidity;BME280_pressure;Samples;Min_cycle;Max_cycle;Signal;HPM_P1;HPM_P2
2022/10/10 00:00:49;;;;;;;8.40;5.63;;;10.60;99.90;;;;;;5009018;28;20184;-66
2022/10/10 00:03:15;;;;;;;8.10;5.47;;;10.50;99.90;;;;;;4986478;28;20196;-67
2022/10/10 00:05:41;;;;;;;9.13;5.53;;;10.50;99.90;;;;;;5005362;28;20184;-67
2022/10/10 00:08:07;;;;;;;10.47;5.50;;;10.50;99.90;;;;;;4993915;28;20279;-66
2022/10/10 00:10:33;;;;;;;6.57;5.17;;;10.40;99.90;;;;;;4989189;28;20658;-68
2022/10/10 00:12:59;;;;;;;12.90;5.53;;;10.40;99.90;;;;;;4993401;28;20240;-67
2022/10/10 00:15:25;;;;;;;7.47;5.27;;;10.40;99.90;;;;;;4988841;28;20191;-66
2022/10/10 00:17:50;;;;;;;5.43;4.90;;;10.40;99.90;;;;;;5007051;28;20222;-66
2022/10/10 00:20:18;;;;;;;5.53;4.97;;;10.40;99.90;;;;;;4992434;28;20184;-67
2022/10/10 00:22:43;;;;;;;8.67;6.43;;;10.40;99.90;;;;;;5005770;28;20249;-66
2022/10/10 00:25:10;;;;;;;6.53;5.03;;;10.50;99.90;;;;;;5011348;28;20198;-66
2022/10/10 00:27:37;;;;;;;7.17;5.67;;;10.70;99.90;;;;;;5007514;28;20233;-66
2022/10/10 00:30:04;;;;;;;7.97;5.93;;;10.90;99.90;;;;;;4977359;28;20649;-66
2022/10/10 00:32:30;;;;;;;7.33;4.80;;;11.20;99.90;;;;;;4986132;28;20691;-66
2022/10/10 00:34:56;;;;;;;6.30;5.10;;;11.20;99.90;;;;;;4993736;28;20227;-66
2022/10/10 00:37:21;;;;;;;7.00;5.00;;;11.20;99.90;;;;;;4994714;28;20184;-66
2022/10/10 00:39:47;;;;;;;5.40;4.20;;;11.30;99.90;;;;;;4977837;28;20262;-67
2022/10/10 00:42:15;;;;;;;6.67;5.47;;;11.30;99.90;;;;;;4972438;28;20201;-66
2022/10/10 00:44:42;;;;;;;5.83;4.30;;;11.30;99.90;;;;;;5001454;28;20211;-66
2022/10/10 00:47:08;;;;;;;7.13;5.37;;;11.30;99.90;;;;;;4997024;28;20191;-67
2022/10/10 00:49:38;;;;;;;6.30;4.60;;;11.20;99.90;;;;;;5013813;28;20190;-66
2022/10/10 00:52:08;;;;;;;6.87;4.43;;;11.10;99.90;;;;;;5004824;28;20216;-66
2022/10/10 00:54:36;;;;;;;5.90;4.40;;;11.10;99.90;;;;;;4995111;28;20552;-66
2022/10/10 00:57:06;;;;;;;5.33;4.13;;;11.10;99.90;;;;;;5007590;28;20202;-66
2022/10/10 00:59:33;;;;;;;6.53;4.50;;;11.00;99.90;;;;;;5011210;28;20263;-66
2022/10/10 01:01:59;;;;;;;4.50;4.10;;;11.00;99.90;;;;;;5008539;28;20191;-66
2022/10/10 01:04:35;;;;;;;6.70;4.10;;;11.00;99.90;;;;;;5012035;28;20609;-66
2022/10/10 01:07:04;;;;;;;8.20;4.30;;;10.90;99.90;;;;;;4991550;28;20183;-67
2022/10/10 01:09:32;;;;;;;8.53;4.23;;;10.90;99.90;;;;;;5003475;28;20187;-66
2022/10/10 01:12:16;;;;;;;6.87;4.10;;;10.80;99.90;;;;;;4981249;28;20231;-66
2022/10/10 01:15:00;;;;;;;6.30;4.40;;;10.80;99.90;;;;;;4997009;28;20233;-66
2022/10/10 01:17:46;;;;;;;4.57;3.80;;;10.70;99.90;;;;;;5008906;28;20206;-66
2022/10/10 01:20:36;;;;;;;9.97;4.13;;;10.70;99.90;;;;;;5007919;28;20661;-66
2022/10/10 01:23:09;;;;;;;8.60;4.93;;;10.70;99.90;;;;;;5002033;28;20190;-66
2022/10/10 01:26:09;;;;;;;5.17;3.70;;;10.60;99.90;;;;;;4997325;28;20195;-66
2022/10/10 01:28:49;;;;;;;6.83;4.13;;;10.60;99.90;;;;;;4986297;28;20200;-66
2022/10/10 01:31:21;;;;;;;5.23;4.27;;;10.50;99.90;;;;;;5006062;28;20258;-66
2022/10/10 01:34:12;;;;;;;6.07;4.37;;;10.50;99.90;;;;;;4988926;28;20249;-66
2022/10/10 01:36:58;;;;;;;7.00;4.88;;;10.40;99.90;;;;;;4989426;28;20718;-66
2022/10/10 01:39:48;;;;;;;4.63;3.83;;;10.40;99.90;;;;;;4987420;28;20211;-66
2022/10/10 01:42:23;;;;;;;5.33;3.57;;;10.30;99.90;;;;;;5005117;28;20179;-66
2022/10/10 01:44:52;;;;;;;6.60;4.10;;;10.20;99.90;;;;;;4996503;28;20186;-66
2022/10/10 01:47:19;;;;;;;5.40;4.10;;;10.30;99.90;;;;;;4995974;28;20191;-66
2022/10/10 01:49:46;;;;;;;6.17;4.03;;;10.20;99.90;;;;;;5008963;28;20684;-68
2022/10/10 01:52:28;;;;;;;6.27;4.43;;;10.10;99.90;;;;;;5006497;28;20224;-66
2022/10/10 01:55:13;;;;;;;6.30;4.10;;;10.10;99.90;;;;;;5011029;28;20206;-66
2022/10/10 01:58:06;;;;;;;4.50;4.10;;;10.10;99.90;;;;;;5013877;28;20207;-66
2022/10/10 02:00:58;;;;;;;5.37;4.63;;;10.00;99.90;;;;;;5012084;28;20196;-66
2022/10/10 02:03:29;;;;;;;6.30;4.40;;;10.00;99.90;;;;;;5013800;28;20183;-66
2022/10/10 02:06:16;;;;;;;4.93;3.80;;;10.10;99.90;;;;;;4995386;28;20250;-66
2022/10/10 02:08:50;;;;;;;6.30;4.40;;;10.00;99.90;;;;;;5014577;28;20187;-66
2022/10/10 02:11:16;;;;;;;5.63;4.27;;;10.10;99.90;;;;;;5014082;28;20222;-66
2022/10/10 02:14:10;;;;;;;4.43;4.03;;;10.00;99.90;;;;;;4983856;28;20192;-66
2022/10/10 02:16:38;;;;;;;6.70;5.00;;;10.00;99.90;;;;;;5006554;28;20214;-66
2022/10/10 02:19:07;;;;;;;6.93;5.67;;;10.00;99.90;;;;;;4983265;28;20534;-66
2022/10/10 02:21:33;;;;;;;4.63;4.03;;;10.00;99.90;;;;;;5000044;28;20188;-66
2022/10/10 02:24:04;;;;;;;5.87;4.43;;;9.90;99.90;;;;;;4991908;28;20196;-66
2022/10/10 02:26:31;;;;;;;7.03;4.67;;;9.90;99.90;;;;;;5007780;28;20179;-66
2022/10/10 02:29:16;;;;;;;8.53;4.40;;;9.90;99.90;;;;;;4985781;28;20196;-66
2022/10/10 02:31:58;;;;;;;5.50;4.70;;;9.90;99.90;;;;;;4992140;28;20215;-66
2022/10/10 02:34:28;;;;;;;5.53;4.00;;;9.80;99.90;;;;;;5012381;28;20187;-65
2022/10/10 02:36:58;;;;;;;7.17;4.70;;;9.80;99.90;;;;;;5006895;28;20192;-66
2022/10/10 02:39:32;;;;;;;6.63;4.63;;;9.80;99.90;;;;;;4982895;28;20176;-66
2022/10/10 02:41:58;;;;;;;5.67;3.90;;;9.80;99.90;;;;;;4996651;28;20238;-66
2022/10/10 02:44:24;;;;;;;7.40;4.90;;;9.90;99.90;;;;;;5010263;28;20583;-65
2022/10/10 02:46:50;;;;;;;5.03;4.23;;;10.10;99.90;;;;;;4991648;28;20672;-66
2022/10/10 02:49:23;;;;;;;6.90;4.13;;;10.10;99.90;;;;;;4961315;28;20204;-66
2022/10/10 02:51:49;;;;;;;6.63;4.23;;;10.20;99.90;;;;;;5005717;28;20229;-66
2022/10/10 02:54:14;;;;;;;6.53;4.83;;;10.20;99.90;;;;;;4986987;28;20269;-66
2022/10/10 02:56:40;;;;;;;7.17;4.40;;;10.20;99.90;;;;;;4995386;28;20656;-66
2022/10/10 02:59:06;;;;;;;5.27;3.83;;;10.20;99.90;;;;;;4989458;28;20192;-66
2022/10/10 03:01:31;;;;;;;5.80;4.67;;;10.20;99.90;;;;;;4988732;28;20184;-66
2022/10/10 03:03:57;;;;;;;4.90;3.87;;;10.20;99.90;;;;;;4982402;28;20184;-66
2022/10/10 03:06:23;;;;;;;4.80;4.27;;;10.20;99.90;;;;;;5005895;28;20283;-65
2022/10/10 03:08:48;;;;;;;5.73;4.50;;;10.30;99.90;;;;;;4991771;28;20549;-65
2022/10/10 03:11:14;;;;;;;7.13;4.40;;;10.40;99.90;;;;;;5012708;28;20223;-65
2022/10/10 03:13:40;;;;;;;7.50;4.73;;;10.30;99.90;;;;;;4981651;28;20236;-66
2022/10/10 03:16:05;;;;;;;5.37;4.00;;;10.30;99.90;;;;;;4991357;28;20196;-66
2022/10/10 03:18:31;;;;;;;7.07;4.17;;;10.30;99.90;;;;;;4987775;28;20592;-65
2022/10/10 03:21:00;;;;;;;5.17;4.60;;;10.30;99.90;;;;;;5010638;28;20226;-66
2022/10/10 03:23:26;;;;;;;6.30;4.07;;;10.30;99.90;;;;;;4991291;28;20191;-65
2022/10/10 03:25:52;;;;;;;4.90;3.90;;;10.30;99.90;;;;;;4978172;28;20203;-65
2022/10/10 03:28:17;;;;;;;4.63;3.60;;;10.30;99.90;;;;;;4992116;28;20184;-65
2022/10/10 03:30:43;;;;;;;9.63;4.13;;;10.40;99.90;;;;;;4981132;28;20269;-66
2022/10/10 03:33:09;;;;;;;6.00;4.37;;;10.30;99.90;;;;;;4981205;28;20273;-65
2022/10/10 03:35:35;;;;;;;7.13;4.70;;;10.30;99.90;;;;;;4985170;28;21093;-65
2022/10/10 03:38:01;;;;;;;6.73;4.53;;;10.30;99.90;;;;;;4997862;28;20736;-65
2022/10/10 03:40:28;;;;;;;6.73;4.00;;;10.30;99.90;;;;;;4993891;28;20191;-65
2022/10/10 03:42:53;;;;;;;6.90;3.70;;;10.20;99.90;;;;;;4991291;28;20180;-65
2022/10/10 03:45:23;;;;;;;4.53;3.77;;;10.20;99.90;;;;;;4979987;28;20192;-65
2022/10/10 03:47:49;;;;;;;7.87;4.77;;;10.10;99.90;;;;;;4993155;28;20208;-68
2022/10/10 03:50:15;;;;;;;6.10;4.20;;;10.00;99.90;;;;;;4990228;28;20192;-65
2022/10/10 03:52:41;;;;;;;8.70;5.30;;;10.00;99.90;;;;;;4988258;28;20197;-66
2022/10/10 03:55:07;;;;;;;11.03;4.80;;;10.00;99.90;;;;;;4994057;28;20655;-65
2022/10/10 03:57:33;;;;;;;5.13;4.13;;;9.90;99.90;;;;;;4992718;28;20237;-65
2022/10/10 03:59:59;;;;;;;7.00;4.17;;;9.90;99.90;;;;;;4991019;28;20195;-65
2022/10/10 04:02:24;;;;;;;6.77;3.90;;;9.90;99.90;;;;;;4980683;28;20546;-65
2022/10/10 04:04:50;;;;;;;5.10;4.60;;;9.90;99.90;;;;;;4963463;28;20231;-65
2022/10/10 04:07:16;;;;;;;7.53;4.03;;;9.90;99.90;;;;;;5005097;28;20585;-67
2022/10/10 04:09:41;;;;;;;8.57;5.27;;;9.80;99.90;;;;;;4978186;28;20212;-65
2022/10/10 04:12:07;;;;;;;6.20;4.20;;;9.80;99.90;;;;;;4998433;28;20230;-65
2022/10/10 04:14:35;;;;;;;7.10;4.90;;;9.80;99.90;;;;;;4993845;28;20632;-65
2022/10/10 04:17:01;;;;;;;11.33;4.30;;;9.80;99.90;;;;;;4991970;28;20223;-65
2022/10/10 04:19:27;;;;;;;6.30;4.07;;;9.80;99.90;;;;;;4997195;28;20188;-65
2022/10/10 04:21:53;;;;;;;10.10;4.57;;;9.80;99.90;;;;;;4991600;28;20196;-65
2022/10/10 04:24:18;;;;;;;7.53;4.80;;;9.80;99.90;;;;;;4982681;28;20188;-64
2022/10/10 04:26:44;;;;;;;6.30;4.90;;;10.20;99.90;;;;;;5001468;28;20183;-65
2022/10/10 04:29:09;;;;;;;7.30;4.07;;;10.50;99.90;;;;;;4980279;28;20187;-65
2022/10/10 04:31:35;;;;;;;8.00;5.10;;;10.90;99.90;;;;;;4998676;28;20254;-65
2022/10/10 04:34:01;;;;;;;9.30;5.37;;;10.80;99.90;;;;;;4989326;28;20215;-66
2022/10/10 04:36:26;;;;;;;10.60;4.93;;;10.70;99.90;;;;;;4999864;28;20195;-65
2022/10/10 04:38:52;;;;;;;8.23;4.67;;;10.60;99.90;;;;;;4998030;28;20700;-65
2022/10/10 04:41:18;;;;;;;6.90;4.90;;;10.40;99.90;;;;;;4982228;28;20541;-65
2022/10/10 04:43:43;;;;;;;8.37;4.50;;;10.30;99.90;;;;;;4961742;28;20184;-65
2022/10/10 04:46:09;;;;;;;8.23;5.00;;;10.20;99.90;;;;;;5000447;28;21543;-65
2022/10/10 04:48:38;;;;;;;8.13;5.20;;;10.10;99.90;;;;;;4994013;28;20206;-65
2022/10/10 04:51:04;;;;;;;7.47;4.93;;;10.20;99.90;;;;;;5001873;28;20298;-66
2022/10/10 04:53:30;;;;;;;11.03;5.50;;;10.40;99.90;;;;;;4989065;28;20609;-65
2022/10/10 04:55:55;;;;;;;9.30;5.03;;;10.40;99.90;;;;;;4983370;28;20195;-64
2022/10/10 04:58:21;;;;;;;6.53;5.53;;;10.50;99.90;;;;;;4985991;28;20266;-66
2022/10/10 05:00:54;;;;;;;11.90;5.23;;;10.30;99.90;;;;;;4977812;28;20241;-65
2022/10/10 05:03:21;;;;;;;6.90;5.80;;;10.50;99.90;;;;;;4990406;28;20199;-65
2022/10/10 05:05:47;;;;;;;8.73;5.60;;;10.40;99.90;;;;;;5005089;28;20543;-65
2022/10/10 05:08:13;;;;;;;6.20;4.80;;;10.30;99.90;;;;;;5004808;28;20198;-64
2022/10/10 05:10:38;;;;;;;8.37;5.00;;;10.30;99.90;;;;;;5003578;28;20223;-65
2022/10/10 05:13:05;;;;;;;8.27;5.47;;;10.20;99.90;;;;;;4976325;28;20196;-65
2022/10/10 05:15:34;;;;;;;8.50;5.10;;;10.20;99.90;;;;;;5002726;28;20191;-65
2022/10/10 05:18:00;;;;;;;8.70;4.87;;;10.10;99.90;;;;;;4992053;28;20247;-65
2022/10/10 05:20:26;;;;;;;16.63;5.53;;;10.10;99.90;;;;;;4982771;28;20192;-65
2022/10/10 05:22:52;;;;;;;7.93;5.03;;;10.10;99.90;;;;;;4994064;28;20215;-65
2022/10/10 05:25:18;;;;;;;6.37;4.83;;;10.10;99.90;;;;;;5013216;28;20214;-65
2022/10/10 05:27:44;;;;;;;8.17;4.97;;;10.10;99.90;;;;;;4978675;28;20188;-65
2022/10/10 05:30:10;;;;;;;6.10;4.37;;;10.10;99.90;;;;;;5007107;28;20201;-65
2022/10/10 05:32:35;;;;;;;8.00;5.03;;;10.00;99.90;;;;;;5001423;28;20219;-64
2022/10/10 05:35:03;;;;;;;6.50;4.77;;;10.10;99.90;;;;;;4997274;28;20238;-65
2022/10/10 05:37:28;;;;;;;9.90;5.43;;;10.00;99.90;;;;;;4994425;28;20622;-65
2022/10/10 05:39:54;;;;;;;12.43;4.90;;;9.90;99.90;;;;;;4998676;28;20254;-65
2022/10/10 05:42:20;;;;;;;10.03;6.73;;;9.80;99.90;;;;;;5007303;28;20248;-65
2022/10/10 05:44:45;;;;;;;9.73;6.00;;;9.80;99.90;;;;;;4963821;28;20245;-64
2022/10/10 05:47:11;;;;;;;11.40;5.63;;;9.70;99.90;;;;;;4995367;28;20195;-65
2022/10/10 05:49:37;;;;;;;10.87;5.83;;;9.70;99.90;;;;;;4996543;28;20187;-65
2022/10/10 05:52:02;;;;;;;7.97;5.97;;;9.70;99.90;;;;;;4996574;28;20323;-65
2022/10/10 05:54:31;;;;;;;11.97;4.43;;;9.70;99.90;;;;;;4992801;28;20564;-65
2022/10/10 05:56:56;;;;;;;10.13;5.50;;;9.70;99.90;;;;;;4966180;28;20184;-65
2022/10/10 05:59:22;;;;;;;6.67;5.67;;;9.70;99.90;;;;;;5009210;28;20686;-65
2022/10/10 06:01:48;;;;;;;6.33;4.47;;;9.70;99.90;;;;;;5009632;28;20668;-65
2022/10/10 06:04:14;;;;;;;7.37;5.03;;;9.60;99.90;;;;;;4999754;28;20233;-65
2022/10/10 06:06:40;;;;;;;10.37;5.67;;;9.60;99.90;;;;;;4995133;28;20194;-67
2022/10/10 06:09:06;;;;;;;7.97;5.37;;;9.60;99.90;;;;;;5001510;28;20171;-65
2022/10/10 06:11:32;;;;;;;7.30;4.90;;;9.60;99.90;;;;;;5007605;28;20248;-65
2022/10/10 06:13:57;;;;;;;8.17;5.53;;;9.50;99.90;;;;;;5009166;28;20745;-64
2022/10/10 06:16:25;;;;;;;7.33;5.27;;;9.60;99.90;;;;;;4986720;28;20200;-65
2022/10/10 06:18:51;;;;;;;9.50;5.50;;;9.70;99.90;;;;;;4998158;28;20276;-64
2022/10/10 06:21:17;;;;;;;7.70;5.80;;;9.90;99.90;;;;;;4977261;28;20184;-65
2022/10/10 06:23:43;;;;;;;7.47;5.60;;;9.80;99.90;;;;;;4995526;28;20208;-65
2022/10/10 06:26:10;;;;;;;6.43;5.50;;;9.80;99.90;;;;;;5009503;28;20260;-65
2022/10/10 06:28:35;;;;;;;9.97;5.07;;;9.80;99.90;;;;;;4988657;28;20294;-64
2022/10/10 06:31:03;;;;;;;11.87;5.77;;;9.80;99.90;;;;;;4966387;28;20671;-64
2022/10/10 06:33:29;;;;;;;10.83;6.07;;;9.80;99.90;;;;;;5002711;28;20660;-64
2022/10/10 06:35:55;;;;;;;8.50;5.63;;;9.80;99.90;;;;;;5007294;28;20200;-64
2022/10/10 06:38:21;;;;;;;7.50;5.10;;;9.90;99.90;;;;;;4992741;28;20180;-64
2022/10/10 06:40:47;;;;;;;13.37;6.03;;;10.00;99.90;;;;;;4985125;28;20192;-64
2022/10/10 06:43:14;;;;;;;6.67;5.13;;;10.00;99.90;;;;;;5012651;28;20278;-65
2022/10/10 06:45:45;;;;;;;12.33;5.80;;;10.10;99.90;;;;;;5007202;28;20187;-65
2022/10/10 06:48:12;;;;;;;12.13;6.07;;;10.20;99.90;;;;;;5012428;28;20205;-66
2022/10/10 06:50:37;;;;;;;10.47;5.47;;;10.30;99.90;;;;;;4991953;28;20188;-65
2022/10/10 06:53:03;;;;;;;9.80;5.90;;;10.40;99.90;;;;;;4990456;28;20535;-65
2022/10/10 06:55:30;;;;;;;10.20;5.77;;;10.60;99.90;;;;;;4983578;28;20652;-65
2022/10/10 06:57:56;;;;;;;11.77;6.17;;;10.70;99.90;;;;;;5003157;28;20670;-64
2022/10/10 07:00:22;;;;;;;9.20;6.10;;;10.90;99.90;;;;;;4986818;28;20192;-65
2022/10/10 07:02:48;;;;;;;11.13;6.40;;;11.10;99.90;;;;;;4999916;28;20242;-65
2022/10/10 07:05:15;;;;;;;9.60;6.88;;;11.50;99.90;;;;;;4982225;28;20196;-65
2022/10/10 07:07:42;;;;;;;13.15;7.18;;;12.50;99.90;;;;;;5006229;28;20190;-65
2022/10/10 07:10:14;;;;;;;11.30;7.03;;;13.50;99.90;;;;;;5004340;28;20314;-66
2022/10/10 07:12:40;;;;;;;13.40;7.32;;;14.30;99.90;;;;;;5009310;28;20204;-66
2022/10/10 07:15:06;;;;;;;13.50;6.60;;;14.90;99.90;;;;;;4996121;28;20210;-66
2022/10/10 07:17:32;;;;;;;12.98;6.68;;;15.90;99.90;;;;;;4994489;28;20564;-66
2022/10/10 07:19:58;;;;;;;7.80;5.55;;;17.20;99.90;;;;;;5000822;28;20560;-65
2022/10/10 07:22:24;;;;;;;13.27;6.15;;;18.30;99.90;;;;;;4989654;28;20199;-66
2022/10/10 07:24:50;;;;;;;8.25;5.95;;;18.90;99.90;;;;;;4990784;28;20664;-64
2022/10/10 07:27:16;;;;;;;13.25;6.45;;;18.60;99.90;;;;;;5005273;28;20188;-67
2022/10/10 07:29:41;;;;;;;8.05;5.22;;;18.20;99.90;;;;;;5007634;28;20192;-65
2022/10/10 07:32:07;;;;;;;8.25;4.93;;;18.30;99.90;;;;;;4977806;28;20691;-65
2022/10/10 07:34:35;;;;;;;8.43;5.10;;;18.10;99.90;;;;;;5007823;28;20179;-65
2022/10/10 07:37:01;;;;;;;8.18;5.05;;;18.30;99.90;;;;;;4987428;28;20246;-65
2022/10/10 07:39:27;;;;;;;8.73;5.20;;;18.50;99.90;;;;;;5003940;28;20191;-66
2022/10/10 07:41:52;;;;;;;9.65;5.25;;;18.80;99.90;;;;;;5006726;28;20188;-65
2022/10/10 07:44:19;;;;;;;8.00;4.95;;;18.80;99.90;;;;;;4991895;28;20195;-67
2022/10/10 07:46:45;;;;;;;5.88;4.97;;;18.60;99.90;;;;;;4990679;28;20196;-66
2022/10/10 07:49:11;;;;;;;8.23;4.55;;;18.70;99.90;;;;;;5004073;28;20635;-66
2022/10/10 07:51:37;;;;;;;8.88;4.57;;;18.50;99.90;;;;;;5006519;28;20274;-65
2022/10/10 07:54:03;;;;;;;7.50;4.15;;;18.80;99.90;;;;;;5010657;28;20246;-67
2022/10/10 07:56:32;;;;;;;13.88;5.47;;;19.40;99.90;;;;;;5009074;28;20656;-66
2022/10/10 07:58:58;;;;;;;6.90;4.38;;;19.90;99.90;;;;;;5005403;28;20184;-67
2022/10/10 08:01:24;;;;;;;6.97;4.13;;;20.10;99.90;;;;;;4978714;28;20188;-65
2022/10/10 08:03:50;;;;;;;6.78;4.20;;;20.20;99.90;;;;;;5000354;28;20175;-64
2022/10/10 08:06:16;;;;;;;5.38;3.78;;;20.10;99.90;;;;;;5006015;28;20552;-66
2022/10/10 08:08:43;;;;;;;6.75;4.07;;;19.90;99.90;;;;;;5011132;28;20191;-65
2022/10/10 08:11:10;;;;;;;5.07;4.00;;;19.60;99.90;;;;;;5005085;28;20222;-65
2022/10/10 08:13:36;;;;;;;4.15;3.75;;;19.40;99.90;;;;;;4984874;28;20593;-66
2022/10/10 08:16:03;;;;;;;6.25;3.72;;;19.30;99.90;;;;;;4992579;28;20641;-67
2022/10/10 08:18:29;;;;;;;5.53;4.00;;;19.00;99.90;;;;;;5010166;28;20194;-67
2022/10/10 08:21:07;;;;;;;7.05;4.38;;;18.50;99.90;;;;;;4992268;28;20195;-67
2022/10/10 08:23:33;;;;;;;6.47;3.65;;;18.00;99.90;;;;;;5006576;28;20196;-67
2022/10/10 08:26:00;;;;;;;8.25;4.20;;;17.60;99.90;;;;;;5001201;28;20711;-66
2022/10/10 08:28:27;;;;;;;6.70;3.92;;;17.10;99.90;;;;;;4992956;28;20178;-66
2022/10/10 08:30:56;;;;;;;7.15;3.85;;;16.90;99.90;;;;;;5006141;28;20200;-66
2022/10/10 08:33:25;;;;;;;10.55;4.07;;;17.00;99.90;;;;;;4994226;28;20266;-66
2022/10/10 08:35:50;;;;;;;8.57;4.47;;;17.00;99.90;;;;;;5010989;28;20187;-67
2022/10/10 08:38:16;;;;;;;4.35;3.95;;;17.20;99.90;;;;;;5009368;28;20187;-65
2022/10/10 08:40:50;;;;;;;12.35;3.80;;;17.40;99.90;;;;;;4986250;28;20529;-65
2022/10/10 08:43:28;;;;;;;5.47;4.38;;;17.50;99.90;;;;;;4981223;28;20175;-64
2022/10/10 08:45:56;;;;;;;5.38;4.68;;;17.50;99.90;;;;;;5004807;28;20552;-65
2022/10/10 08:48:26;;;;;;;6.93;4.32;;;17.40;99.90;;;;;;5004463;28;20262;-65
2022/10/10 08:51:00;;;;;;;8.82;3.65;;;17.40;99.90;;;;;;5002368;28;20208;-65
2022/10/10 08:53:33;;;;;;;3.67;3.10;;;17.50;99.90;;;;;;5005707;28;20250;-66
2022/10/10 08:56:00;;;;;;;8.75;4.00;;;17.60;99.90;;;;;;4998783;28;20172;-65
2022/10/10 08:58:39;;;;;;;5.88;3.88;;;17.70;99.90;;;;;;5006524;28;20230;-66
2022/10/10 09:01:14;;;;;;;6.43;3.67;;;17.80;99.90;;;;;;5001447;28;20196;-65
2022/10/10 09:03:49;;;;;;;4.40;3.28;;;17.60;99.90;;;;;;5010799;28;20175;-66
2022/10/10 09:06:15;;;;;;;8.38;5.50;;;17.50;99.90;;;;;;4979044;28;20633;-66
2022/10/10 09:09:33;;;;;;;6.18;4.07;;;17.60;99.90;;;;;;5010267;28;20180;-66
2022/10/10 09:12:06;;;;;;;5.47;3.33;;;17.80;99.90;;;;;;4961149;28;20228;-66
2022/10/10 09:14:43;;;;;;;5.72;3.85;;;17.90;99.90;;;;;;5005143;28;20176;-66
2022/10/10 09:17:33;;;;;;;5.95;3.20;;;18.00;99.90;;;;;;5013453;28;20206;-65
2022/10/10 09:20:11;;;;;;;9.75;4.90;;;17.90;99.90;;;;;;5011548;28;20207;-65
2022/10/10 09:23:10;;;;;;;6.82;3.75;;;17.70;99.90;;;;;;5006076;28;20186;-65
2022/10/10 09:26:24;;;;;;;4.40;3.10;;;17.50;99.90;;;;;;5011595;28;20229;-65
2022/10/10 09:29:02;;;;;;;4.80;3.35;;;17.10;99.90;;;;;;4985112;28;20196;-66
2022/10/10 09:31:36;;;;;;;7.93;3.38;;;16.90;99.90;;;;;;5013469;28;20302;-67
2022/10/10 09:34:13;;;;;;;3.63;3.33;;;16.80;99.90;;;;;;4989124;28;20194;-64
2022/10/10 09:36:39;;;;;;;7.00;4.35;;;17.00;99.90;;;;;;5002801;28;20186;-64
2022/10/10 09:39:34;;;;;;;4.55;4.13;;;17.10;99.90;;;;;;4998120;28;20265;-65
2022/10/10 09:42:03;;;;;;;7.43;3.55;;;17.10;99.90;;;;;;5001330;28;20207;-64
2022/10/10 09:44:30;;;;;;;8.43;3.90;;;17.20;99.90;;;;;;5006656;28;20180;-66
2022/10/10 09:46:58;;;;;;;5.45;3.80;;;17.20;99.90;;;;;;5005826;28;20191;-65
2022/10/10 09:49:24;;;;;;;8.07;4.00;;;17.10;99.90;;;;;;5004304;28;20209;-65
2022/10/10 09:51:50;;;;;;;3.28;2.92;;;17.40;99.90;;;;;;5005587;28;20756;-66
2022/10/10 09:54:18;;;;;;;3.67;3.17;;;17.30;99.90;;;;;;4985559;28;20276;-64
2022/10/10 09:56:52;;;;;;;7.53;3.28;;;17.20;99.90;;;;;;5001226;28;20183;-66
2022/10/10 09:59:47;;;;;;;4.40;2.55;;;17.20;99.90;;;;;;5001131;28;20187;-66
2022/10/10 10:02:16;;;;;;;7.85;3.95;;;17.30;99.90;;;;;;4952445;28;20203;-66
2022/10/10 10:04:43;;;;;;;10.00;3.28;;;17.30;99.90;;;;;;5013928;28;20226;-65
2022/10/10 10:07:20;;;;;;;3.78;3.38;;;17.40;99.90;;;;;;4995602;28;20184;-66
2022/10/10 10:10:15;;;;;;;4.30;3.83;;;17.50;99.90;;;;;;4988728;28;20221;-64
2022/10/10 10:12:43;;;;;;;5.55;3.42;;;17.70;99.90;;;;;;4991585;28;20772;-67
2022/10/10 10:15:20;;;;;;;5.80;3.47;;;18.00;99.90;;;;;;4997233;28;20552;-67
2022/10/10 10:18:07;;;;;;;4.35;3.75;;;18.50;99.90;;;;;;4996264;28;20211;-67
2022/10/10 10:20:43;;;;;;;4.80;3.10;;;18.60;99.90;;;;;;5006668;28;20246;-67
2022/10/10 10:23:30;;;;;;;3.22;2.42;;;18.80;99.90;;;;;;5001149;28;20219;-67
2022/10/10 10:26:05;;;;;;;7.10;3.70;;;18.70;99.90;;;;;;5002591;28;20215;-66
2022/10/10 10:28:31;;;;;;;7.22;2.90;;;18.60;99.90;;;;;;5006739;28;20270;-66
2022/10/10 10:30:58;;;;;;;4.43;4.00;;;18.70;99.90;;;;;;5008255;28;20345;-66
2022/10/10 10:33:29;;;;;;;7.50;4.10;;;18.60;99.90;;;;;;4987430;28;20583;-66
2022/10/10 10:36:18;;;;;;;6.30;2.70;;;18.50;99.90;;;;;;5004479;28;20188;-67
2022/10/10 10:38:59;;;;;;;2.92;2.65;;;18.40;99.90;;;;;;4991624;28;20191;-67
2022/10/10 10:41:49;;;;;;;19.15;6.57;;;18.40;99.90;;;;;;4999371;28;20199;-67
2022/10/10 10:44:21;;;;;;;6.43;3.95;;;18.40;99.90;;;;;;5000016;28;20184;-67
2022/10/10 10:47:12;;;;;;;5.45;3.35;;;18.50;99.90;;;;;;5003028;28;20197;-66
2022/10/10 10:49:41;;;;;;;8.77;3.83;;;18.60;99.90;;;;;;5007845;28;20210;-67
2022/10/10 10:52:25;;;;;;;4.93;2.75;;;18.90;99.90;;;;;;4994390;28;20294;-67
2022/10/10 10:54:59;;;;;;;3.13;2.55;;;19.30;99.90;;;;;;5012129;28;20191;-67
2022/10/10 10:57:32;;;;;;;4.90;2.60;;;19.40;99.90;;;;;;5001230;28;20634;-67
2022/10/10 10:59:58;;;;;;;5.70;2.42;;;19.60;99.90;;;;;;5008563;28;20717;-66
2022/10/10 11:02:33;;;;;;;7.65;2.85;;;19.60;99.90;;;;;;5012100;28;20263;-66
2022/10/10 11:05:33;;;;;;;3.92;2.47;;;19.70;99.90;;;;;;5008410;28;20715;-67
2022/10/10 11:08:29;;;;;;;3.97;2.53;;;19.80;99.90;;;;;;5011740;28;20187;-67
2022/10/10 11:11:00;;;;;;;3.22;2.65;;;20.20;99.90;;;;;;5005690;28;20265;-67
2022/10/10 11:14:08;;;;;;;7.57;3.03;;;20.10;99.90;;;;;;4993185;28;20543;-67
2022/10/10 11:16:45;;;;;;;6.18;2.80;;;20.20;99.90;;;;;;5005796;28;20633;-67
2022/10/10 11:19:10;;;;;;;3.15;2.70;;;20.70;99.90;;;;;;4989008;28;20722;-67
2022/10/10 11:22:06;;;;;;;2.85;2.40;;;21.00;99.90;;;;;;4997926;28;20191;-67
2022/10/10 11:24:58;;;;;;;5.45;2.10;;;21.20;99.90;;;;;;4997213;28;20223;-69
2022/10/10 11:27:41;;;;;;;12.38;3.50;;;21.30;99.90;;;;;;4975966;28;20200;-69
2022/10/10 11:30:22;;;;;;;2.42;1.98;;;21.40;99.90;;;;;;4997411;28;20179;-67
2022/10/10 11:32:53;;;;;;;4.95;2.42;;;21.20;99.90;;;;;;5004386;28;20602;-69
2022/10/10 11:35:24;;;;;;;3.75;2.20;;;21.10;99.90;;;;;;5007641;28;20203;-68
2022/10/10 11:38:12;;;;;;;5.90;2.65;;;21.00;99.90;;;;;;5003476;28;20250;-69
2022/10/10 11:40:47;;;;;;;4.00;2.38;;;20.80;99.90;;;;;;4981555;28;20247;-67
2022/10/10 11:43:40;;;;;;;6.47;3.03;;;20.70;99.90;;;;;;5004549;28;20222;-66
2022/10/10 11:46:29;;;;;;;7.50;2.45;;;20.70;99.90;;;;;;5004557;28;20243;-67
2022/10/10 11:49:03;;;;;;;8.48;3.20;;;20.80;99.90;;;;;;4978644;28;20638;-67
2022/10/10 11:51:55;;;;;;;5.00;2.70;;;20.90;99.90;;;;;;5006507;28;20221;-67
2022/10/10 11:54:40;;;;;;;6.63;3.15;;;21.00;99.90;;;;;;4972182;28;20200;-68
2022/10/10 11:57:20;;;;;;;4.38;2.90;;;20.80;99.90;;;;;;5006323;28;20189;-67
2022/10/10 11:59:58;;;;;;;7.50;3.30;;;20.70;99.90;;;;;;4991997;28;20176;-67
2022/10/10 12:02:23;;;;;;;7.88;3.40;;;20.90;99.90;;;;;;4995922;28;20573;-67
2022/10/10 12:04:49;;;;;;;6.22;3.03;;;20.60;99.90;;;;;;4999829;28;20258;-66
2022/10/10 12:07:31;;;;;;;8.90;2.75;;;20.50;99.90;;;;;;4986831;28;20188;-66
2022/10/10 12:10:08;;;;;;;3.83;2.85;;;20.50;99.90;;;;;;4994166;28;20643;-66
2022/10/10 12:12:45;;;;;;;9.70;3.90;;;20.50;99.90;;;;;;4992727;28;20203;-66
2022/10/10 12:15:25;;;;;;;8.38;3.28;;;20.70;99.90;;;;;;5012273;28;20183;-66
2022/10/10 12:17:51;;;;;;;10.35;4.15;;;20.90;99.90;;;;;;5002968;28;20211;-66
2022/10/10 12:20:19;;;;;;;6.30;3.42;;;21.00;99.90;;;;;;4989521;28;20186;-66
2022/10/10 12:23:04;;;;;;;6.20;3.35;;;21.00;99.90;;;;;;5004145;28;20199;-66
2022/10/10 12:25:41;;;;;;;11.93;4.65;;;21.10;99.90;;;;;;5006315;28;20190;-68
2022/10/10 12:28:13;;;;;;;9.13;3.92;;;21.00;99.90;;;;;;5006612;28;20237;-66
2022/10/10 12:30:54;;;;;;;6.88;3.03;;;21.10;99.90;;;;;;5004107;28;20628;-66
2022/10/10 12:33:42;;;;;;;5.32;3.40;;;21.00;99.90;;;;;;5012723;28;20674;-66
2022/10/10 12:36:17;;;;;;;6.07;3.08;;;20.80;99.90;;;;;;5011078;28;20269;-66
2022/10/10 12:39:05;;;;;;;10.05;3.75;;;20.60;99.90;;;;;;4995353;28;20211;-65
2022/10/10 12:41:50;;;;;;;6.82;3.47;;;20.60;99.90;;;;;;4964852;28;20560;-66
2022/10/10 12:44:21;;;;;;;4.40;3.95;;;20.50;99.90;;;;;;4985472;28;20221;-66
2022/10/10 12:47:06;;;;;;;4.63;3.63;;;20.70;99.90;;;;;;5012016;28;20207;-66
2022/10/10 12:49:34;;;;;;;6.95;4.30;;;20.60;99.90;;;;;;5003352;28;20222;-66
2022/10/10 12:52:18;;;;;;;12.00;5.85;;;20.70;99.90;;;;;;5005095;28;20315;-67
2022/10/10 12:54:45;;;;;;;6.22;3.75;;;20.70;99.90;;;;;;5012352;28;20180;-67
2022/10/10 12:57:11;;;;;;;8.60;3.55;;;20.80;99.90;;;;;;4990529;28;20195;-66
2022/10/10 12:59:37;;;;;;;14.23;5.10;;;20.80;99.90;;;;;;5014775;28;20171;-66
2022/10/10 13:02:19;;;;;;;10.93;3.65;;;20.70;99.90;;;;;;4981267;28;21140;-66
2022/10/10 13:04:47;;;;;;;5.45;3.85;;;20.70;99.90;;;;;;5013864;28;20187;-66
2022/10/10 13:07:17;;;;;;;6.45;3.63;;;20.60;99.90;;;;;;5001212;28;20187;-67
2022/10/10 13:09:45;;;;;;;7.03;4.82;;;20.60;99.90;;;;;;5006883;28;20636;-66